Flight Track Log - Related Links

Times and Time Zones

All times are in EDT time to prevent confusion due to time zone crossing. See the SKW5631 flight status page for this flight to view local times or setup timezone preferences in your user account.

Time Position Orientation Groundspeed Altitude Reporting Facility
EDT Latitude Longitude Course Direction KTS MPH feet Rate Location/Type
Sat 10:37:54 AM 37.6667 -122.3667 17° North 166 191 2,400  Level Northern Cal TRACON
Sat 10:38:54 AM 37.6667 -122.4167 270° West 206 237 4,300 1,738 Climbing Northern Cal TRACON
Sat 10:40:19 AM 37.5994 -122.4417 196° South 214 246 6,600 1,685 Climbing Oakland Center
Sat 10:41:20 AM 37.5419 -122.4439 182° South 210 242 8,400 1,820 Climbing Oakland Center
Sat 10:42:21 AM 37.4819 -122.4444 180° South 215 247 10,300 1,721 Climbing Oakland Center
Sat 10:43:00 AM 37.6590 -122.3596 17° North  Level FlightAware Approximate
Sat 10:43:22 AM 37.4214 -122.4431 179° South 217 250 11,900  Level Oakland Center
Sat 10:44:23 AM 37.3550 -122.4422 179° South 238 274 13,600 1,574 Climbing Oakland Center
Sat 10:45:24 AM 37.2875 -122.4453 182° South 243 280 15,100 1,537 Climbing Oakland Center
Sat 10:46:24 AM 37.2192 -122.4442 179° South 246 283 16,700 1,388 Climbing Oakland Center
Sat 10:47:25 AM 37.1522 -122.4442 180° South 242 278 17,900 1,180 Climbing Oakland Center
Sat 10:48:26 AM 37.0869 -122.4411 178° South 239 275 19,100 1,279 Climbing Oakland Center
Sat 10:49:27 AM 37.0153 -122.3831 147° Southeast 252 290 20,500 1,230 Climbing Oakland Center
Sat 10:50:28 AM 36.9531 -122.3389 150° Southeast 259 298 21,600 984 Climbing Oakland Center
Sat 10:51:29 AM 36.8903 -122.2922 149° Southeast 263 303 22,500 934 Climbing Oakland Center
Sat 10:52:30 AM 36.8264 -122.2422 148° Southeast 271 312 23,500 934 Climbing Oakland Center
Sat 10:53:31 AM 36.7594 -122.1939 150° Southeast 278 320 24,400 738 Climbing Oakland Center
Sat 10:54:32 AM 36.6950 -122.1436 148° Southeast 276 318 25,000 295 Climbing Oakland Center
Sat 10:55:33 AM 36.6228 -122.0986 153° Southeast 289 333 25,000  Level Oakland Center
Sat 10:56:34 AM 36.5494 -122.0575 156° South 290 334 25,000  Level Oakland Center
Sat 10:57:35 AM 36.4761 -122.0175 156° South 289 333 25,000  Level Oakland Center
Sat 10:58:36 AM 36.4036 -121.9758 155° Southeast 288 331 25,000  Level Oakland Center
Sat 10:59:37 AM 36.3311 -121.9344 155° Southeast 287 330 25,000  Level Oakland Center
Sat 11:00:38 AM 36.2631 -121.8842 149° Southeast 285 328 25,000  Level Oakland Center
Sat 11:01:39 AM 36.1994 -121.8064 135° Southeast 283 326 25,000  Level Oakland Center
Sat 11:02:39 AM 36.1447 -121.7472 139° Southeast 284 327 25,000  Level Oakland Center
Sat 11:03:40 AM 36.0844 -121.6850 140° Southeast 283 326 25,000  Level Oakland Center
Sat 11:04:41 AM 36.0253 -121.6214 139° Southeast 283 326 25,000  Level Oakland Center
Sat 11:05:42 AM 35.9533 -121.5456 140° Southeast 284 327 25,000  Level Oakland Center
Sat 11:06:43 AM 35.8936 -121.4828 140° Southeast 283 326 25,000  Level Oakland Center
Sat 11:07:44 AM 35.8347 -121.4194 139° Southeast 282 325 25,000  Level Oakland Center
Sat 11:08:45 AM 35.7750 -121.3583 140° Southeast 281 323 25,000  Level Oakland Center
Sat 11:09:46 AM 35.7139 -121.2972 141° Southeast 283 326 25,000  Level Oakland Center
Sat 11:10:47 AM 35.6550 -121.2347 139° Southeast 282 325 25,000  Level Oakland Center
Sat 11:11:48 AM 35.5947 -121.1728 140° Southeast 283 326 25,000  Level Oakland Center
Sat 11:12:49 AM 35.5353 -121.1100 139° Southeast 283 326 25,000  Level Oakland Center
Sat 11:13:50 AM 35.4761 -121.0481 140° Southeast 281 323 25,000  Level Oakland Center
Sat 11:14:51 AM 35.4153 -120.9872 141° Southeast 284 327 25,000  Level Oakland Center
Sat 11:15:41 AM 35.3625 -120.9319 139° Southeast 281 323 25,000 -270 Level Los Angeles Center
Sat 11:16:42 AM 35.3011 -120.8681 140° Southeast 288 331 24,500 -439 Descending Los Angeles Center
Sat 11:17:44 AM 35.2361 -120.8028 141° Southeast 297 342 24,100 -871 Descending Los Angeles Center
Sat 11:18:46 AM 35.1683 -120.7369 142° Southeast 306 352 22,700 -1,452 Descending Los Angeles Center
Sat 11:19:48 AM 35.0961 -120.6753 145° Southeast 314 361 21,100 -1,756 Descending Los Angeles Center
Sat 11:20:49 AM 35.0108 -120.5992 144° Southeast 315 362 19,100 -1,659 Descending Los Angeles Center
Sat 11:21:51 AM 34.9383 -120.5364 145° Southeast 319 367 17,700 -1,548 Descending Los Angeles Center
Sat 11:22:53 AM 34.8681 -120.4758 145° Southeast 311 358 15,900 -1,659 Descending Los Angeles Center
Sat 11:23:54 AM 34.8125 -120.4247 143° Southeast 302 348 14,300 -1,854 Descending Los Angeles Center
Sat 11:24:56 AM 34.7344 -120.3581 145° Southeast 291 335 12,100 -2,152 Descending Los Angeles Center
Sat 11:25:26 AM 34.6969 -120.3281 147° Southeast 265 305 11,000 -1,645 Descending Los Angeles Center
Sat 11:25:58 AM 34.6747 -120.3078 143° Southeast 267 307 10,400 -1,333 Descending Los Angeles Center
Sat 11:26:20 AM 34.6464 -120.2839 145° Southeast 255 293 9,800 -1,258 Descending Los Angeles Center
Sat 11:27:00 AM 34.6181 -120.2564 141° Southeast 254 292 9,100 -1,180 Descending Los Angeles Center
Sat 11:27:21 AM 34.5922 -120.2333 144° Southeast 255 293 8,600 -1,279 Descending Los Angeles Center
Sat 11:28:01 AM 34.5611 -120.2053 143° Southeast 256 295 7,800 -1,727 Descending Los Angeles Center
Sat 11:28:27 AM 34.5278 -120.1756 144° Southeast 254 292 6,700 -2,129 Descending Los Angeles Center
Sat 11:29:03 AM 34.4947 -120.1453 143° Southeast 249 287 5,600 -1,869 Descending Los Angeles Center
Sat 11:29:28 AM 34.4689 -120.1242 146° Southeast 251 289 4,800 -1,535 Descending Los Angeles Center
Sat 11:30:29 AM 34.4228 -120.0711 136° Southeast 238 274 3,400 -1,189 Descending Los Angeles Center
Sat 11:31:19 AM 34.4253 -120.0139 87° East 235 270 2,600 -1,027 Descending Los Angeles Center
Sat 11:32:20 AM 34.4253 -119.9456 90° East 218 251 1,500 -1,091 Descending Los Angeles Center
Sat 11:32:36 AM 34.4264 -119.9214 87° East 177 204 1,200 -677 Descending Los Angeles Center
Sat 11:33:22 AM 34.4319 -119.8944 76° East 179 206 800 -689 Descending Los Angeles Center
Sat 11:33:37 AM 34.4258 -119.8797 117° Southeast 132 152 500 -581 Descending Los Angeles Center
Sat 11:34:24 AM 34.4275 -119.8522 86° East 146 168 200 -383 Descending Los Angeles Center
Sat 11:36:00 AM 34.4262 -119.8415 90° East  Level Estimated

Login

Don't have an account? Register now (free) for customized features, flight alerts, and more!